Time;durP1;ratioP1;P1;durP2;ratioP2;P2;SDS_P1;SDS_P2;PMS_P1;PMS_P2;Temp;Humidity;BMP_temperature;BMP_pressure;BME280_temperature;BME280_humidity;BME280_pressure;Samples;Min_cycle;Max_cycle;Signal;HPM_P1;HPM_P2
2022/06/27 00:02:00;;;;;;;4.45;3.00;;;;;;;;;;4898287;29;20029;-76
2022/06/27 00:04:26;;;;;;;7.05;3.22;;;;;;;;;;4898397;29;20092;-76
2022/06/27 00:06:52;;;;;;;4.50;3.05;;;;;;;;;;4898307;29;20039;-88
2022/06/27 00:09:19;;;;;;;6.57;3.33;;;;;;;;;;4881527;29;20033;-77
2022/06/27 00:11:45;;;;;;;5.40;2.75;;;;;;;;;;4898325;29;20032;-76
2022/06/27 00:14:12;;;;;;;3.33;2.83;;;;;;;;;;4881471;29;20045;-77
2022/06/27 00:16:38;;;;;;;4.90;3.05;;;;;;;;;;4898266;29;20033;-76
2022/06/27 00:19:04;;;;;;;6.40;3.00;;;;;;;;;;4898159;29;20033;-76
2022/06/27 00:21:31;;;;;;;4.40;2.95;;;;;;;;;;4898157;29;20112;-76
2022/06/27 00:23:57;;;;;;;3.88;3.08;;;;;;;;;;4898204;29;20033;-76
2022/06/27 00:26:23;;;;;;;4.65;3.22;;;;;;;;;;4881382;29;20029;-90
2022/06/27 00:28:50;;;;;;;3.95;2.85;;;;;;;;;;4881271;29;20028;-76
2022/06/27 00:31:16;;;;;;;4.25;2.72;;;;;;;;;;4897870;29;20029;-80
2022/06/27 00:33:42;;;;;;;4.70;2.78;;;;;;;;;;4881315;29;20372;-76
2022/06/27 00:36:09;;;;;;;5.63;2.65;;;;;;;;;;4881397;29;20108;-76
2022/06/27 00:38:35;;;;;;;3.05;2.63;;;;;;;;;;4881557;29;20454;-89
2022/06/27 00:41:02;;;;;;;3.55;2.75;;;;;;;;;;4881321;29;20064;-75
2022/06/27 00:43:28;;;;;;;3.95;2.90;;;;;;;;;;4882468;29;20060;-78
2022/06/27 00:45:55;;;;;;;3.55;2.80;;;;;;;;;;4884911;29;20029;-89
2022/06/27 00:48:21;;;;;;;3.22;2.78;;;;;;;;;;4902593;29;20036;-88
2022/06/27 00:50:51;;;;;;;5.75;2.80;;;;;;;;;;4885551;29;20371;-89
2022/06/27 00:53:20;;;;;;;5.38;3.05;;;;;;;;;;4885662;29;20033;-88
2022/06/27 00:55:52;;;;;;;4.28;2.90;;;;;;;;;;4885621;29;20037;-88
2022/06/27 00:58:21;;;;;;;5.30;2.78;;;;;;;;;;4884470;29;20037;-87
2022/06/27 01:00:50;;;;;;;4.90;2.83;;;;;;;;;;4884557;29;20104;-87
2022/06/27 01:03:16;;;;;;;3.70;2.90;;;;;;;;;;4901484;29;20116;-78
2022/06/27 01:05:51;;;;;;;3.80;2.90;;;;;;;;;;4885052;29;20025;-75
2022/06/27 01:08:26;;;;;;;4.90;2.95;;;;;;;;;;4901337;29;20056;-78
2022/06/27 01:10:53;;;;;;;4.35;3.20;;;;;;;;;;4901283;29;20096;-75
2022/06/27 01:13:19;;;;;;;3.63;3.17;;;;;;;;;;4884281;29;20471;-77
2022/06/27 01:15:49;;;;;;;4.25;2.80;;;;;;;;;;4884193;29;20028;-88
2022/06/27 01:18:16;;;;;;;3.25;2.70;;;;;;;;;;4884129;29;20044;-80
2022/06/27 01:20:43;;;;;;;3.83;2.97;;;;;;;;;;4884522;29;20100;-76
2022/06/27 01:23:09;;;;;;;3.90;2.83;;;;;;;;;;4884473;29;20534;-76
2022/06/27 01:25:41;;;;;;;3.85;3.05;;;;;;;;;;4901348;29;20027;-91
2022/06/27 01:28:09;;;;;;;7.60;2.92;;;;;;;;;;4884426;29;20032;-77
2022/06/27 01:30:35;;;;;;;3.80;2.85;;;;;;;;;;4884704;29;20375;-78
2022/06/27 01:33:05;;;;;;;5.65;3.03;;;;;;;;;;4888680;29;20052;-89
2022/06/27 01:35:31;;;;;;;3.53;2.70;;;;;;;;;;4884433;29;20029;-78
2022/06/27 01:37:57;;;;;;;5.07;3.25;;;;;;;;;;4884003;29;20393;-79
2022/06/27 01:40:23;;;;;;;3.20;2.88;;;;;;;;;;4883957;29;20474;-79
2022/06/27 01:42:50;;;;;;;5.50;3.05;;;;;;;;;;4883742;29;20024;-79
2022/06/27 01:45:16;;;;;;;4.32;3.28;;;;;;;;;;4883787;29;20141;-85
2022/06/27 01:47:43;;;;;;;4.35;3.17;;;;;;;;;;4885132;29;20064;-77
2022/06/27 01:50:11;;;;;;;3.95;3.10;;;;;;;;;;4900424;29;20108;-79
2022/06/27 01:52:37;;;;;;;4.00;3.20;;;;;;;;;;4900295;29;20033;-77
2022/06/27 01:55:04;;;;;;;3.92;3.20;;;;;;;;;;4900533;29;20107;-78
2022/06/27 01:57:30;;;;;;;3.67;3.00;;;;;;;;;;4883556;29;20032;-89
2022/06/27 01:59:56;;;;;;;4.28;3.60;;;;;;;;;;4883462;29;20029;-77
2022/06/27 02:02:23;;;;;;;4.78;3.30;;;;;;;;;;4900152;29;20025;-77
2022/06/27 02:04:50;;;;;;;5.75;3.20;;;;;;;;;;4900270;29;20020;-77
2022/06/27 02:07:17;;;;;;;4.97;3.20;;;;;;;;;;4883474;29;20044;-77
2022/06/27 02:09:49;;;;;;;3.72;3.00;;;;;;;;;;4900124;29;20020;-91
2022/06/27 02:12:23;;;;;;;3.38;3.00;;;;;;;;;;4883339;29;20410;-77
2022/06/27 02:14:51;;;;;;;4.05;2.80;;;;;;;;;;4884765;29;20457;-76
2022/06/27 02:17:24;;;;;;;3.92;2.92;;;;;;;;;;4885366;29;20037;-90
2022/06/27 02:20:11;;;;;;;3.72;3.40;;;;;;;;;;4884005;29;20418;-89
2022/06/27 02:22:37;;;;;;;3.78;3.13;;;;;;;;;;4870808;29;20051;-77
2022/06/27 02:25:04;;;;;;;4.97;3.10;;;;;;;;;;4899877;29;20133;-77
2022/06/27 02:27:31;;;;;;;4.47;3.00;;;;;;;;;;4899682;29;20041;-77
2022/06/27 02:30:23;;;;;;;4.90;2.65;;;;;;;;;;4900248;29;20067;-90
2022/06/27 02:32:55;;;;;;;4.72;2.63;;;;;;;;;;4873852;29;20060;-90
2022/06/27 02:35:21;;;;;;;3.58;2.75;;;;;;;;;;4882914;29;20124;-81
2022/06/27 02:37:48;;;;;;;5.97;3.50;;;;;;;;;;4882920;29;20033;-79
2022/06/27 02:40:14;;;;;;;3.25;2.92;;;;;;;;;;4882943;29;20036;-77
2022/06/27 02:42:41;;;;;;;5.53;2.95;;;;;;;;;;4882809;29;20120;-77
2022/06/27 02:45:14;;;;;;;5.70;3.00;;;;;;;;;;4882963;29;20054;-89
2022/06/27 02:47:42;;;;;;;3.47;2.85;;;;;;;;;;4883046;29;20032;-77
2022/06/27 02:50:12;;;;;;;4.57;3.00;;;;;;;;;;4883271;29;20364;-89
2022/06/27 02:52:47;;;;;;;5.30;3.10;;;;;;;;;;4883039;29;20482;-88
2022/06/27 02:55:18;;;;;;;3.67;3.08;;;;;;;;;;4883461;29;20410;-89
2022/06/27 02:57:45;;;;;;;3.97;3.35;;;;;;;;;;4887212;29;20486;-87
2022/06/27 03:00:12;;;;;;;7.28;3.40;;;;;;;;;;4899618;29;20036;-79
2022/06/27 03:02:38;;;;;;;4.82;3.78;;;;;;;;;;4882507;29;20036;-77
2022/06/27 03:05:05;;;;;;;3.70;3.30;;;;;;;;;;4899097;29;20039;-77
2022/06/27 03:07:37;;;;;;;4.93;3.20;;;;;;;;;;4882012;29;20068;-82
2022/06/27 03:10:03;;;;;;;4.93;3.35;;;;;;;;;;4882705;29;20545;-77
2022/06/27 03:12:30;;;;;;;5.55;3.00;;;;;;;;;;4898963;29;20028;-78
2022/06/27 03:14:58;;;;;;;5.35;3.40;;;;;;;;;;4899108;29;20033;-90
2022/06/27 03:17:25;;;;;;;4.88;3.08;;;;;;;;;;4898849;29;20482;-78
2022/06/27 03:19:51;;;;;;;6.55;3.70;;;;;;;;;;4898677;29;20479;-79
2022/06/27 03:22:18;;;;;;;5.80;3.55;;;;;;;;;;4899064;29;20526;-77
2022/06/27 03:24:44;;;;;;;4.90;3.58;;;;;;;;;;4899005;29;20028;-77
2022/06/27 03:27:11;;;;;;;4.75;3.38;;;;;;;;;;4898699;29;20029;-78
2022/06/27 03:29:37;;;;;;;4.53;3.33;;;;;;;;;;4882059;29;20124;-77
2022/06/27 03:32:04;;;;;;;4.95;3.20;;;;;;;;;;4898500;29;20080;-77
2022/06/27 03:34:30;;;;;;;6.05;3.15;;;;;;;;;;4882044;29;20044;-78
2022/06/27 03:36:57;;;;;;;4.07;3.15;;;;;;;;;;4898982;29;20103;-80
2022/06/27 03:39:23;;;;;;;3.88;3.10;;;;;;;;;;4899616;29;20033;-77
2022/06/27 03:41:50;;;;;;;5.22;3.30;;;;;;;;;;4881928;29;20447;-77
2022/06/27 03:44:16;;;;;;;5.35;3.40;;;;;;;;;;4882236;29;20024;-77
2022/06/27 03:46:42;;;;;;;6.97;3.60;;;;;;;;;;4898890;29;20040;-77
2022/06/27 03:51:54;;;;;;;4.80;2.97;;;;;;;;;;4898635;29;20435;-80
2022/06/27 03:54:20;;;;;;;7.28;3.05;;;;;;;;;;4883381;29;20096;-77
2022/06/27 03:57:04;;;;;;;7.32;3.40;;;;;;;;;;4899514;29;20052;-88
2022/06/27 03:59:30;;;;;;;5.07;3.08;;;;;;;;;;4884523;29;20024;-76
2022/06/27 04:01:57;;;;;;;5.00;3.10;;;;;;;;;;4898585;29;20390;-77
2022/06/27 04:04:23;;;;;;;5.45;3.53;;;;;;;;;;4900960;29;20103;-76
2022/06/27 04:06:49;;;;;;;5.55;3.40;;;;;;;;;;4881630;29;20025;-84
2022/06/27 04:09:16;;;;;;;4.18;3.03;;;;;;;;;;4881670;29;20033;-76
2022/06/27 04:11:42;;;;;;;4.78;2.88;;;;;;;;;;4879781;29;20028;-76
2022/06/27 04:14:08;;;;;;;5.32;2.90;;;;;;;;;;4880304;29;20048;-78
2022/06/27 04:16:34;;;;;;;4.88;2.92;;;;;;;;;;4881615;29;20025;-83
2022/06/27 04:19:00;;;;;;;4.78;2.60;;;;;;;;;;4878661;29;20069;-76
2022/06/27 04:21:27;;;;;;;6.25;2.75;;;;;;;;;;4866785;29;20033;-79
2022/06/27 04:23:53;;;;;;;5.13;2.70;;;;;;;;;;4866434;29;20120;-81
2022/06/27 04:26:19;;;;;;;6.38;2.90;;;;;;;;;;4866531;29;20076;-79
2022/06/27 04:28:45;;;;;;;8.27;3.08;;;;;;;;;;4866527;29;20029;-76
2022/06/27 04:31:12;;;;;;;5.03;2.90;;;;;;;;;;4868199;29;20085;-79
2022/06/27 04:33:38;;;;;;;4.28;2.70;;;;;;;;;;4898334;29;20474;-77
2022/06/27 04:36:28;;;;;;;6.45;2.90;;;;;;;;;;4890723;29;20036;-75
2022/06/27 04:38:55;;;;;;;4.90;2.90;;;;;;;;;;4857235;29;20092;-79
2022/06/27 04:41:22;;;;;;;5.68;2.80;;;;;;;;;;4864349;29;20029;-80
2022/06/27 04:43:48;;;;;;;4.95;3.05;;;;;;;;;;4864880;29;20025;-79
2022/06/27 04:46:14;;;;;;;4.25;2.80;;;;;;;;;;4882914;29;20607;-80
2022/06/27 04:48:40;;;;;;;4.07;2.67;;;;;;;;;;4882500;29;20025;-85
2022/06/27 04:51:08;;;;;;;4.35;2.85;;;;;;;;;;4865661;29;20032;-77
2022/06/27 04:53:35;;;;;;;7.13;5.25;;;;;;;;;;4866023;29;20443;-77
2022/06/27 04:56:01;;;;;;;8.07;4.85;;;;;;;;;;4865905;29;20104;-84
2022/06/27 04:58:27;;;;;;;5.40;3.38;;;;;;;;;;4882546;29;20039;-79
2022/06/27 05:00:54;;;;;;;4.00;3.00;;;;;;;;;;4865870;29;20036;-83
2022/06/27 05:03:22;;;;;;;5.20;3.30;;;;;;;;;;4867389;29;20033;-78
2022/06/27 05:05:50;;;;;;;5.85;3.35;;;;;;;;;;4865968;29;20029;-76
2022/06/27 05:08:16;;;;;;;5.47;2.97;;;;;;;;;;4865904;29;20088;-89
2022/06/27 05:10:43;;;;;;;9.63;3.95;;;;;;;;;;4865771;29;20028;-79
2022/06/27 05:13:09;;;;;;;5.97;3.63;;;;;;;;;;4865566;29;20037;-85
2022/06/27 05:15:39;;;;;;;7.38;3.67;;;;;;;;;;4882473;29;20497;-79
2022/06/27 05:18:05;;;;;;;5.55;3.20;;;;;;;;;;4865718;29;20033;-77
2022/06/27 05:20:32;;;;;;;5.13;3.15;;;;;;;;;;4865716;29;20033;-78
2022/06/27 05:23:01;;;;;;;6.40;3.17;;;;;;;;;;4882257;29;20033;-79
2022/06/27 05:25:28;;;;;;;3.67;2.97;;;;;;;;;;4865415;29;20368;-77
2022/06/27 05:27:56;;;;;;;5.20;2.90;;;;;;;;;;4865585;29;20033;-80
2022/06/27 05:30:22;;;;;;;4.85;2.42;;;;;;;;;;4864879;29;20025;-82
2022/06/27 05:32:49;;;;;;;7.43;3.40;;;;;;;;;;4882193;29;20065;-83
2022/06/27 05:35:15;;;;;;;6.25;2.80;;;;;;;;;;4880392;29;20431;-79
2022/06/27 05:37:45;;;;;;;4.85;2.88;;;;;;;;;;4901277;29;20033;-76
2022/06/27 05:40:11;;;;;;;4.15;3.08;;;;;;;;;;4887763;29;20401;-84
2022/06/27 05:42:37;;;;;;;5.63;2.60;;;;;;;;;;4898546;29;20028;-78
2022/06/27 05:45:04;;;;;;;5.75;2.70;;;;;;;;;;4883499;29;20034;-76
2022/06/27 05:47:31;;;;;;;5.63;3.00;;;;;;;;;;4884668;29;20383;-76
2022/06/27 05:49:59;;;;;;;4.35;2.92;;;;;;;;;;4900726;29;20073;-76
2022/06/27 05:52:29;;;;;;;5.15;2.88;;;;;;;;;;4886126;29;20043;-76
2022/06/27 05:54:56;;;;;;;4.68;2.65;;;;;;;;;;4898182;29;20136;-76
2022/06/27 05:57:24;;;;;;;6.10;2.95;;;;;;;;;;4898770;29;20056;-79
2022/06/27 05:59:52;;;;;;;5.50;2.35;;;;;;;;;;4898828;29;20466;-77
2022/06/27 06:02:18;;;;;;;3.25;2.63;;;;;;;;;;4898290;29;20478;-77
2022/06/27 06:04:45;;;;;;;12.85;2.80;;;;;;;;;;4899174;29;20032;-78
2022/06/27 06:07:12;;;;;;;4.40;2.60;;;;;;;;;;4900022;29;20060;-77
2022/06/27 06:09:38;;;;;;;4.18;2.70;;;;;;;;;;4898664;29;20036;-76
2022/06/27 06:12:06;;;;;;;4.82;2.80;;;;;;;;;;4892923;29;20056;-86
2022/06/27 06:14:33;;;;;;;6.60;2.55;;;;;;;;;;4886772;29;20087;-76
2022/06/27 06:16:59;;;;;;;4.57;2.60;;;;;;;;;;4898829;29;20122;-76
2022/06/27 06:19:25;;;;;;;4.82;2.38;;;;;;;;;;4898728;29;20032;-77
2022/06/27 06:21:51;;;;;;;3.30;2.58;;;;;;;;;;4898991;29;20031;-77
2022/06/27 06:24:17;;;;;;;5.10;2.80;;;;;;;;;;4898987;29;20035;-77
2022/06/27 06:26:45;;;;;;;3.47;2.40;;;;;;;;;;4864196;29;20029;-80
2022/06/27 06:29:12;;;;;;;4.47;2.30;;;;;;;;;;4876244;29;20160;-88
2022/06/27 06:31:44;;;;;;;4.57;2.33;;;;;;;;;;4882287;29;20024;-78
2022/06/27 06:34:12;;;;;;;3.85;2.50;;;;;;;;;;4899204;29;20055;-87
2022/06/27 06:36:38;;;;;;;3.55;2.42;;;;;;;;;;4887974;29;20681;-80
2022/06/27 06:39:05;;;;;;;4.10;2.30;;;;;;;;;;4882812;29;20077;-85
2022/06/27 06:41:32;;;;;;;5.22;2.55;;;;;;;;;;4881342;29;20055;-79
2022/06/27 06:44:02;;;;;;;7.18;2.40;;;;;;;;;;4882480;29;20025;-78
2022/06/27 06:46:28;;;;;;;4.25;2.45;;;;;;;;;;4883309;29;20084;-79
2022/06/27 06:48:57;;;;;;;3.97;2.55;;;;;;;;;;4898339;29;20032;-87
2022/06/27 06:51:24;;;;;;;3.97;2.53;;;;;;;;;;4885033;29;20035;-85
2022/06/27 06:53:50;;;;;;;4.78;2.38;;;;;;;;;;4889195;29;20040;-84
2022/06/27 06:56:20;;;;;;;5.38;2.35;;;;;;;;;;4905068;29;20024;-87
2022/06/27 06:58:46;;;;;;;5.90;2.50;;;;;;;;;;4903044;29;20036;-88
2022/06/27 07:01:12;;;;;;;4.57;2.40;;;;;;;;;;4902487;29;20080;-87
2022/06/27 07:03:38;;;;;;;7.93;2.30;;;;;;;;;;4902548;29;20057;-80
2022/06/27 07:06:05;;;;;;;5.68;2.10;;;;;;;;;;4899201;29;20036;-86
2022/06/27 07:08:32;;;;;;;6.68;3.35;;;;;;;;;;4897557;29;20028;-89
2022/06/27 07:10:59;;;;;;;7.05;3.22;;;;;;;;;;4899523;29;20500;-81
2022/06/27 07:13:26;;;;;;;4.60;2.83;;;;;;;;;;4898959;29;20036;-86
2022/06/27 07:15:52;;;;;;;4.05;2.92;;;;;;;;;;4898157;29;20116;-79
2022/06/27 07:18:19;;;;;;;10.13;2.53;;;;;;;;;;4898098;29;20103;-83
2022/06/27 07:20:45;;;;;;;3.42;2.22;;;;;;;;;;4886382;29;20077;-80
2022/06/27 07:23:11;;;;;;;4.55;1.80;;;;;;;;;;4885497;29;20025;-79
2022/06/27 07:25:38;;;;;;;2.75;1.75;;;;;;;;;;4900271;29;20025;-78
2022/06/27 07:28:04;;;;;;;4.82;2.08;;;;;;;;;;4883834;29;20073;-77
2022/06/27 07:30:31;;;;;;;5.63;1.90;;;;;;;;;;4883544;29;20068;-77
2022/06/27 07:32:58;;;;;;;6.05;1.98;;;;;;;;;;4880205;29;20414;-76
2022/06/27 07:35:24;;;;;;;2.97;1.80;;;;;;;;;;4881159;29;20037;-78
2022/06/27 07:37:51;;;;;;;4.10;1.45;;;;;;;;;;4897756;29;20027;-84
2022/06/27 07:40:22;;;;;;;2.90;1.67;;;;;;;;;;4881370;29;20557;-76
2022/06/27 07:42:49;;;;;;;3.20;1.70;;;;;;;;;;4898233;29;20048;-77
2022/06/27 07:45:15;;;;;;;3.35;1.70;;;;;;;;;;4898297;29;20352;-77
2022/06/27 07:47:42;;;;;;;4.07;1.60;;;;;;;;;;4883543;29;20048;-77
2022/06/27 07:50:09;;;;;;;4.88;1.80;;;;;;;;;;4898038;29;20339;-78
2022/06/27 07:55:21;;;;;;;3.67;1.90;;;;;;;;;;4898272;29;20534;-77
2022/06/27 07:57:49;;;;;;;3.13;1.77;;;;;;;;;;4884214;29;20025;-76
2022/06/27 08:00:15;;;;;;;4.32;1.60;;;;;;;;;;4898114;29;20478;-76
2022/06/27 08:02:42;;;;;;;3.28;1.33;;;;;;;;;;4881033;29;20021;-77
2022/06/27 08:05:09;;;;;;;3.13;1.65;;;;;;;;;;4898019;29;20036;-76
2022/06/27 08:07:35;;;;;;;3.92;1.60;;;;;;;;;;4886050;29;20040;-78
2022/06/27 08:10:01;;;;;;;3.65;1.60;;;;;;;;;;4881081;29;20059;-76
2022/06/27 08:12:29;;;;;;;5.13;1.48;;;;;;;;;;4880602;29;20394;-80
2022/06/27 08:14:55;;;;;;;2.50;1.48;;;;;;;;;;4897543;29;20401;-77
2022/06/27 08:17:23;;;;;;;3.67;1.20;;;;;;;;;;4881124;29;20164;-80
2022/06/27 08:19:53;;;;;;;3.97;1.40;;;;;;;;;;4880997;29;20127;-76
2022/06/27 08:22:24;;;;;;;3.25;1.20;;;;;;;;;;4897701;29;20024;-76
2022/06/27 08:24:54;;;;;;;3.20;1.40;;;;;;;;;;4897390;29;20039;-77
2022/06/27 08:27:21;;;;;;;2.58;1.20;;;;;;;;;;4898184;29;20494;-78
2022/06/27 08:29:47;;;;;;;4.88;1.42;;;;;;;;;;4897908;29;20088;-77
2022/06/27 08:32:13;;;;;;;4.50;1.00;;;;;;;;;;4903096;29;20425;-78
2022/06/27 08:34:39;;;;;;;4.82;1.40;;;;;;;;;;4915675;29;20120;-77
2022/06/27 08:37:06;;;;;;;4.72;1.40;;;;;;;;;;4916459;29;20028;-78
2022/06/27 08:39:32;;;;;;;2.97;1.30;;;;;;;;;;4901247;29;20035;-78
2022/06/27 08:41:58;;;;;;;4.30;1.35;;;;;;;;;;4880477;29;20038;-80
2022/06/27 08:44:27;;;;;;;2.17;0.90;;;;;;;;;;4880483;29;20035;-77
2022/06/27 08:46:54;;;;;;;3.35;1.20;;;;;;;;;;4880703;29;20028;-81
2022/06/27 08:49:22;;;;;;;3.53;1.00;;;;;;;;;;4880399;29;20387;-78
2022/06/27 08:51:48;;;;;;;5.63;1.20;;;;;;;;;;4897323;29;20016;-77
2022/06/27 08:54:15;;;;;;;2.30;1.02;;;;;;;;;;4897508;29;20036;-77
2022/06/27 08:56:42;;;;;;;2.90;1.00;;;;;;;;;;4880810;29;20479;-79
2022/06/27 08:59:08;;;;;;;2.38;0.95;;;;;;;;;;4898189;29;20107;-76
2022/06/27 09:01:35;;;;;;;5.03;1.10;;;;;;;;;;4897629;29;20036;-80
2022/06/27 09:04:03;;;;;;;3.40;0.90;;;;;;;;;;4880383;29;20036;-77
2022/06/27 09:06:33;;;;;;;5.18;0.80;;;;;;;;;;4900700;29;20027;-76
2022/06/27 09:09:08;;;;;;;1.77;0.77;;;;;;;;;;4884078;29;20032;-80
2022/06/27 09:11:41;;;;;;;2.80;0.90;;;;;;;;;;4900342;29;20064;-78
2022/06/27 09:14:28;;;;;;;2.40;0.90;;;;;;;;;;4883304;29;20127;-80
2022/06/27 09:16:58;;;;;;;1.77;0.75;;;;;;;;;;4883051;29;20145;-77
2022/06/27 09:19:48;;;;;;;1.50;0.70;;;;;;;;;;4883165;29;20037;-76
2022/06/27 09:22:15;;;;;;;3.13;0.90;;;;;;;;;;4898188;29;20040;-77
2022/06/27 09:25:02;;;;;;;3.60;1.00;;;;;;;;;;4919388;29;20032;-82
2022/06/27 09:27:35;;;;;;;2.58;0.80;;;;;;;;;;4902178;29;20036;-77
2022/06/27 09:30:21;;;;;;;2.38;0.98;;;;;;;;;;4902467;29;20028;-78
2022/06/27 09:32:49;;;;;;;3.70;1.00;;;;;;;;;;4898684;29;20053;-76
2022/06/27 09:35:23;;;;;;;1.95;1.10;;;;;;;;;;4899103;29;20095;-76
2022/06/27 09:37:57;;;;;;;2.42;0.90;;;;;;;;;;4902617;29;20474;-79
2022/06/27 09:40:24;;;;;;;2.70;0.80;;;;;;;;;;4883522;29;20109;-76
2022/06/27 09:42:52;;;;;;;2.00;0.85;;;;;;;;;;4900020;29;20533;-76
2022/06/27 09:45:19;;;;;;;2.22;0.75;;;;;;;;;;4883150;29;20037;-77
2022/06/27 09:47:46;;;;;;;3.50;1.00;;;;;;;;;;4900133;29;20031;-79
2022/06/27 09:50:14;;;;;;;2.15;0.60;;;;;;;;;;4900268;29;20068;-77
2022/06/27 09:52:40;;;;;;;2.53;0.70;;;;;;;;;;4882803;29;20025;-77
2022/06/27 09:55:08;;;;;;;4.72;0.93;;;;;;;;;;4898653;29;20044;-80
2022/06/27 09:57:35;;;;;;;3.78;0.80;;;;;;;;;;4883936;29;20032;-78
2022/06/27 10:00:02;;;;;;;3.35;0.70;;;;;;;;;;4882434;29;20043;-76
2022/06/27 10:02:28;;;;;;;1.60;0.63;;;;;;;;;;4895579;29;20423;-78
2022/06/27 10:04:55;;;;;;;2.88;0.65;;;;;;;;;;4882463;29;20210;-77
2022/06/27 10:07:22;;;;;;;1.40;0.57;;;;;;;;;;4884306;29;20379;-82
2022/06/27 10:09:54;;;;;;;2.00;0.70;;;;;;;;;;4897927;29;20029;-78
2022/06/27 10:12:21;;;;;;;3.42;0.63;;;;;;;;;;4881851;29;20124;-80
2022/06/27 10:15:07;;;;;;;1.70;0.50;;;;;;;;;;4886713;29;20060;-77
2022/06/27 10:17:36;;;;;;;3.50;0.80;;;;;;;;;;4885610;29;20028;-75
2022/06/27 10:20:22;;;;;;;3.67;0.70;;;;;;;;;;4895195;29;20029;-87
2022/06/27 10:23:08;;;;;;;1.52;0.75;;;;;;;;;;4855538;29;20542;-80
2022/06/27 10:25:34;;;;;;;1.40;0.57;;;;;;;;;;4885517;29;20045;-88
2022/06/27 10:28:10;;;;;;;3.72;0.80;;;;;;;;;;4882146;29;20021;-81
2022/06/27 10:30:39;;;;;;;4.53;0.80;;;;;;;;;;4881504;29;20043;-78
2022/06/27 10:33:24;;;;;;;4.13;0.80;;;;;;;;;;4887272;29;20086;-81
2022/06/27 10:35:59;;;;;;;1.73;0.80;;;;;;;;;;4882035;29;20033;-78
2022/06/27 10:38:57;;;;;;;3.55;0.80;;;;;;;;;;4882879;29;20025;-78
2022/06/27 10:41:23;;;;;;;2.35;0.80;;;;;;;;;;4864889;29;20045;-78
2022/06/27 10:43:49;;;;;;;2.65;0.70;;;;;;;;;;4917494;29;20586;-78
2022/06/27 10:46:15;;;;;;;3.72;0.80;;;;;;;;;;4900109;29;20371;-75
2022/06/27 10:48:42;;;;;;;2.75;0.90;;;;;;;;;;4901120;29;20092;-77
2022/06/27 10:51:26;;;;;;;3.80;1.02;;;;;;;;;;4900837;29;20115;-75
2022/06/27 10:54:12;;;;;;;3.70;1.05;;;;;;;;;;4897530;29;20041;-76
2022/06/27 10:56:41;;;;;;;2.15;0.90;;;;;;;;;;4882160;29;20108;-83
2022/06/27 10:59:29;;;;;;;2.60;0.90;;;;;;;;;;4882319;29;20028;-77
2022/06/27 11:01:58;;;;;;;4.13;1.00;;;;;;;;;;4882255;29;20032;-80
2022/06/27 11:04:25;;;;;;;1.60;0.60;;;;;;;;;;4899917;29;20031;-80
2022/06/27 11:06:56;;;;;;;2.28;0.90;;;;;;;;;;4880715;29;20033;-75
2022/06/27 11:09:34;;;;;;;2.95;0.70;;;;;;;;;;4898691;29;20021;-79
2022/06/27 11:12:00;;;;;;;3.08;0.90;;;;;;;;;;4881900;29;20123;-75
2022/06/27 11:14:26;;;;;;;2.40;0.88;;;;;;;;;;4881659;29;20111;-75
2022/06/27 11:16:53;;;;;;;2.40;0.70;;;;;;;;;;4898184;29;20183;-75
2022/06/27 11:22:22;;;;;;;4.45;0.95;;;;;;;;;;4898548;29;20051;-78
2022/06/27 11:24:51;;;;;;;2.47;0.90;;;;;;;;;;4881482;29;20490;-75
2022/06/27 11:27:17;;;;;;;2.67;0.90;;;;;;;;;;4897562;29;20033;-76
2022/06/27 11:32:34;;;;;;;2.38;1.00;;;;;;;;;;4888154;29;20051;-76
2022/06/27 11:35:00;;;;;;;4.80;0.80;;;;;;;;;;4879261;29;20041;-75
2022/06/27 11:37:29;;;;;;;2.15;1.08;;;;;;;;;;4862495;29;20427;-75
2022/06/27 11:39:58;;;;;;;4.28;1.20;;;;;;;;;;4871801;29;20071;-75
2022/06/27 11:42:31;;;;;;;2.95;1.02;;;;;;;;;;4881215;29;20088;-78
2022/06/27 11:45:13;;;;;;;4.38;1.08;;;;;;;;;;4881507;29;20135;-81
2022/06/27 11:47:44;;;;;;;2.08;1.00;;;;;;;;;;4881495;29;20024;-75
2022/06/27 11:50:12;;;;;;;3.67;1.00;;;;;;;;;;4880859;29;20047;-74
2022/06/27 11:52:39;;;;;;;2.78;1.02;;;;;;;;;;4898059;29;20021;-85
2022/06/27 11:55:07;;;;;;;4.93;1.20;;;;;;;;;;4881377;29;20482;-77
2022/06/27 11:57:33;;;;;;;3.55;1.27;;;;;;;;;;4898381;29;20025;-76
2022/06/27 12:00:01;;;;;;;2.35;1.02;;;;;;;;;;4881376;29;20044;-76
2022/06/27 12:02:36;;;;;;;3.22;1.38;;;;;;;;;;4898423;29;20028;-83
2022/06/27 12:05:03;;;;;;;2.63;1.02;;;;;;;;;;4881232;29;20060;-80
2022/06/27 12:07:30;;;;;;;4.32;1.00;;;;;;;;;;4881403;29;20454;-77
2022/06/27 12:09:56;;;;;;;3.55;1.00;;;;;;;;;;4898111;29;20033;-78
2022/06/27 12:12:26;;;;;;;2.35;1.10;;;;;;;;;;4881116;29;20016;-78
2022/06/27 12:14:53;;;;;;;2.42;1.02;;;;;;;;;;4880342;29;20450;-76
2022/06/27 12:17:20;;;;;;;1.85;1.00;;;;;;;;;;4880864;29;20390;-78
2022/06/27 12:19:46;;;;;;;2.70;1.00;;;;;;;;;;4881293;29;20033;-78
2022/06/27 12:22:18;;;;;;;3.33;0.90;;;;;;;;;;4880993;29;20024;-78
2022/06/27 12:24:44;;;;;;;3.00;1.00;;;;;;;;;;4880845;29;20025;-77
2022/06/27 12:27:10;;;;;;;3.03;1.25;;;;;;;;;;4897667;29;20419;-80
2022/06/27 12:29:37;;;;;;;3.67;1.00;;;;;;;;;;4898047;29;20048;-75
2022/06/27 12:32:03;;;;;;;3.35;1.05;;;;;;;;;;4880643;29;20112;-79
2022/06/27 12:34:30;;;;;;;4.28;1.20;;;;;;;;;;4880553;29;20482;-78
2022/06/27 12:36:56;;;;;;;3.30;1.20;;;;;;;;;;4878441;29;20060;-77
2022/06/27 12:39:23;;;;;;;3.58;1.30;;;;;;;;;;4897618;29;20044;-76
2022/06/27 12:41:49;;;;;;;3.05;1.23;;;;;;;;;;4900337;29;20024;-77
2022/06/27 12:44:16;;;;;;;3.80;1.00;;;;;;;;;;4901457;29;20383;-75
2022/06/27 12:46:44;;;;;;;2.50;1.20;;;;;;;;;;4900097;29;20024;-79
2022/06/27 12:49:10;;;;;;;3.40;1.10;;;;;;;;;;4903073;29;20040;-82
2022/06/27 12:51:36;;;;;;;2.95;1.10;;;;;;;;;;4900474;29;20459;-76
2022/06/27 12:54:03;;;;;;;2.72;1.15;;;;;;;;;;4887649;29;20044;-82
2022/06/27 12:56:29;;;;;;;2.83;1.00;;;;;;;;;;4901602;29;20036;-77
2022/06/27 12:58:55;;;;;;;2.30;1.00;;;;;;;;;;4900888;29;20037;-77
2022/06/27 13:01:21;;;;;;;2.35;1.05;;;;;;;;;;4884063;29;20021;-76
2022/06/27 13:03:48;;;;;;;4.35;1.10;;;;;;;;;;4896447;29;20036;-78
2022/06/27 13:06:14;;;;;;;2.50;1.20;;;;;;;;;;4870392;29;20037;-83
2022/06/27 13:08:40;;;;;;;2.20;0.90;;;;;;;;;;4882340;29;20166;-76
2022/06/27 13:11:07;;;;;;;2.40;1.15;;;;;;;;;;4865955;29;20073;-78
2022/06/27 13:13:34;;;;;;;3.13;1.30;;;;;;;;;;4865613;29;20501;-77
2022/06/27 13:16:01;;;;;;;3.80;1.10;;;;;;;;;;4882208;29;20041;-78
2022/06/27 13:18:27;;;;;;;3.38;1.20;;;;;;;;;;4865966;29;20084;-85
2022/06/27 13:20:53;;;;;;;2.47;1.42;;;;;;;;;;4865298;29;20037;-76
2022/06/27 13:23:20;;;;;;;3.25;1.10;;;;;;;;;;4882262;29;20025;-80
2022/06/27 13:25:46;;;;;;;3.65;1.27;;;;;;;;;;4881622;29;20497;-75
2022/06/27 13:28:12;;;;;;;4.45;1.15;;;;;;;;;;4864950;29;20132;-74
2022/06/27 13:30:38;;;;;;;5.30;1.05;;;;;;;;;;4892129;29;20032;-74
2022/06/27 13:33:05;;;;;;;4.00;1.17;;;;;;;;;;4914712;29;20048;-75
2022/06/27 13:35:31;;;;;;;3.50;1.20;;;;;;;;;;4883664;29;20036;-74
2022/06/27 13:38:00;;;;;;;3.72;1.25;;;;;;;;;;4900457;29;20032;-78
2022/06/27 13:40:26;;;;;;;2.78;1.30;;;;;;;;;;4883477;29;20040;-77
2022/06/27 13:42:52;;;;;;;5.28;1.42;;;;;;;;;;4883389;29;20028;-79
2022/06/27 13:45:18;;;;;;;4.93;1.35;;;;;;;;;;4883545;29;20040;-78
2022/06/27 13:47:44;;;;;;;4.13;1.10;;;;;;;;;;4900533;29;20036;-75
2022/06/27 13:50:11;;;;;;;2.53;1.23;;;;;;;;;;4900889;29;20052;-75
2022/06/27 13:52:37;;;;;;;2.55;1.20;;;;;;;;;;4883283;29;20490;-75
2022/06/27 13:55:03;;;;;;;4.07;1.40;;;;;;;;;;4883332;29;20505;-76
2022/06/27 13:57:30;;;;;;;6.25;1.60;;;;;;;;;;4900157;29;20092;-76
2022/06/27 13:59:56;;;;;;;2.35;1.23;;;;;;;;;;4900174;29;20040;-76
2022/06/27 14:02:22;;;;;;;5.15;1.30;;;;;;;;;;4883290;29;20047;-76
2022/06/27 14:04:48;;;;;;;3.88;1.27;;;;;;;;;;4883030;29;20482;-83
2022/06/27 14:09:59;;;;;;;4.20;1.52;;;;;;;;;;4901420;29;20172;-87
2022/06/27 14:12:25;;;;;;;3.22;1.40;;;;;;;;;;4883623;29;20103;-85
2022/06/27 14:14:51;;;;;;;2.10;1.23;;;;;;;;;;4900642;29;20092;-84
2022/06/27 14:17:18;;;;;;;3.92;1.40;;;;;;;;;;4900107;29;20032;-81
2022/06/27 14:19:44;;;;;;;4.90;1.33;;;;;;;;;;4906943;29;20096;-84
2022/06/27 14:22:10;;;;;;;2.90;1.40;;;;;;;;;;4884448;29;20467;-82
2022/06/27 14:24:37;;;;;;;3.08;1.30;;;;;;;;;;4883032;29;20550;-83
2022/06/27 14:27:03;;;;;;;2.80;1.20;;;;;;;;;;4900014;29;20060;-83
2022/06/27 14:29:29;;;;;;;4.45;1.40;;;;;;;;;;4882784;29;20123;-80
2022/06/27 14:31:55;;;;;;;3.67;1.30;;;;;;;;;;4882986;29;20052;-86
2022/06/27 14:34:21;;;;;;;2.95;1.33;;;;;;;;;;4900161;29;20044;-91
2022/06/27 14:36:51;;;;;;;5.57;1.15;;;;;;;;;;4883648;29;20032;-90
2022/06/27 14:39:18;;;;;;;2.90;1.20;;;;;;;;;;4883485;29;20572;-89
2022/06/27 14:41:46;;;;;;;3.42;1.40;;;;;;;;;;4882667;29;20501;-80
2022/06/27 14:44:14;;;;;;;6.32;1.30;;;;;;;;;;4899387;29;20024;-80
2022/06/27 14:46:40;;;;;;;2.78;1.08;;;;;;;;;;4882046;29;20021;-79
2022/06/27 14:49:06;;;;;;;3.00;1.02;;;;;;;;;;4882623;29;20040;-88
2022/06/27 14:51:33;;;;;;;2.78;0.98;;;;;;;;;;4882952;29;20028;-85
2022/06/27 14:53:59;;;;;;;3.25;1.50;;;;;;;;;;4882666;29;20409;-83
2022/06/27 14:56:29;;;;;;;4.57;1.40;;;;;;;;;;4900123;29;20024;-76
2022/06/27 14:58:55;;;;;;;5.30;1.30;;;;;;;;;;4899152;29;20067;-81
2022/06/27 15:01:22;;;;;;;3.83;1.15;;;;;;;;;;4883253;29;20122;-77
2022/06/27 15:03:49;;;;;;;3.05;1.20;;;;;;;;;;4881652;29;20040;-79